»·PEaware :: N1JG KCRQ-KHND

N1JG :: KCRQ-KHND

FLIGHT INFORMATION

Flight Status: Arrived
Operator: Privately registered:
United States
More flights under this callsign
Pilot: Saso K. (7898)
Aircraft: SOCATA TBM-900
(TBM9)
More flights by this aircraft type
Origin: KCRQ McClellan-Palomar
United States
Destination: KHND Henderson
United States
More flights between these airports :: More routes between these airports
Route: +PADRZ2 PADRZ SLI PDZ J60 BLD
File this flight plan on PilotEdge
Remarks:
Altitude:
(Current/Filed)
27,000ft
Speed:
(Current/Filed)
315kts
Departed: 26-Aug-18 02:00 PM
Arrived: 26-Aug-18 02:53 PM
Distance/Time
Traveled:
201nm/0:52
Distance/Time
To Go:
Arrived

Flight Plot

Page will automatically refresh every two minutes.

Flight plan parsing failed; only flown route is shown


Map Options




Map Legend


Flown Route
Filed Route
Departure Airport
Arrival Airport
Navaid (VOR, NDB)
Fix

Horizontal Profiles

Position Reports

Time Latitude Longitude Heading Altitude Ground
Speed
26-Aug-18 12:59 33.127320 -117.274601 256 305ft 0kts
26-Aug-18 13:00 33.127320 -117.274601 256 305ft 0kts
26-Aug-18 13:07 33.127319 -117.274605 256 305ft 0kts
26-Aug-18 13:08 33.127319 -117.274605 256 305ft 0kts
26-Aug-18 13:09 33.127319 -117.274605 256 305ft 0kts
26-Aug-18 13:10 33.127319 -117.274605 256 305ft 0kts
26-Aug-18 13:11 33.127319 -117.274605 256 305ft 0kts
26-Aug-18 13:20 33.127319 -117.274605 255 305ft 0kts
26-Aug-18 13:21 33.127319 -117.274605 255 305ft 0kts
26-Aug-18 13:27 33.127319 -117.274605 255 305ft 0kts
26-Aug-18 13:28 33.127319 -117.274605 255 305ft 0kts
26-Aug-18 13:29 33.127319 -117.274605 255 305ft 0kts
26-Aug-18 13:30 33.127319 -117.274605 255 305ft 0kts
26-Aug-18 13:31 33.127319 -117.274605 255 305ft 0kts
26-Aug-18 13:32 33.127319 -117.274605 255 305ft 0kts
26-Aug-18 13:33 33.127319 -117.274605 255 305ft 0kts
26-Aug-18 13:34 33.127319 -117.274605 255 305ft 0kts
26-Aug-18 13:35 33.127319 -117.274605 255 305ft 0kts
26-Aug-18 13:36 33.127319 -117.274605 255 305ft 0kts
26-Aug-18 13:37 33.127319 -117.274605 255 305ft 0kts
26-Aug-18 13:38 33.127319 -117.274605 255 305ft 0kts
26-Aug-18 13:39 33.127319 -117.274605 255 305ft 0kts
26-Aug-18 13:40 33.127319 -117.274605 255 305ft 0kts
26-Aug-18 13:41 33.127319 -117.274605 255 305ft 0kts
26-Aug-18 13:42 33.127319 -117.274605 255 305ft 0kts
26-Aug-18 13:43 33.127319 -117.274605 255 305ft 0kts
26-Aug-18 13:44 33.127319 -117.274605 255 305ft 0kts
26-Aug-18 13:45 33.127319 -117.274605 255 305ft 0kts
26-Aug-18 13:46 33.127319 -117.274605 255 305ft 0kts
26-Aug-18 13:47 33.127319 -117.274605 255 305ft 0kts
26-Aug-18 13:48 33.127319 -117.274605 255 305ft 0kts
26-Aug-18 13:49 33.127319 -117.274605 255 305ft 0kts
26-Aug-18 13:50 33.127319 -117.274605 255 305ft 0kts
26-Aug-18 13:51 33.127319 -117.274605 255 305ft 0kts
26-Aug-18 13:52 33.127319 -117.274605 255 305ft 0kts
26-Aug-18 13:53 33.127319 -117.274605 255 305ft 0kts
26-Aug-18 13:54 33.127319 -117.274605 255 305ft 0kts
26-Aug-18 13:55 33.127319 -117.274605 255 305ft 0kts
26-Aug-18 13:56 33.127319 -117.274605 255 305ft 0kts
26-Aug-18 13:57 33.127319 -117.274605 255 305ft 0kts
26-Aug-18 13:58 33.128439 -117.273811 77 303ft 17kts
26-Aug-18 13:59 33.129538 -117.272280 291 302ft 4kts
26-Aug-18 14:00 33.129489 -117.272661 255 304ft 6kts
26-Aug-18 14:01 33.125795 -117.303445 259 1411ft 134kts
26-Aug-18 14:02 33.116822 -117.350192 256 3488ft 153kts
26-Aug-18 14:03 33.108419 -117.391751 257 6051ft 126kts
26-Aug-18 14:04 33.104335 -117.432938 304 7999ft 133kts
26-Aug-18 14:05 33.133283 -117.461619 319 10065ft 140kts
26-Aug-18 14:06 33.164047 -117.489816 320 12436ft 142kts
26-Aug-18 14:07 33.195239 -117.518063 319 14608ft 144kts
26-Aug-18 14:08 33.227543 -117.547316 318 16685ft 151kts
26-Aug-18 14:09 33.260596 -117.577241 317 19064ft 152kts
26-Aug-18 14:10 33.294149 -117.607681 315 21215ft 157kts
26-Aug-18 14:11 33.329191 -117.639457 317 23391ft 162kts
26-Aug-18 14:12 33.379021 -117.636512 358 25282ft 193kts
26-Aug-18 14:13 33.433913 -117.626351 0 26808ft 219kts
26-Aug-18 14:14 33.501013 -117.613167 2 27091ft 276kts
26-Aug-18 14:15 33.580690 -117.597311 2 27069ft 305kts
26-Aug-18 14:16 33.665571 -117.580422 3 27066ft 315kts
26-Aug-18 14:17 33.748631 -117.542963 18 27071ft 327kts
26-Aug-18 14:18 33.831490 -117.498761 19 27072ft 328kts
26-Aug-18 14:19 33.913547 -117.455005 18 27070ft 327kts
26-Aug-18 14:20 33.995779 -117.411075 18 27074ft 329kts
26-Aug-18 14:21 34.069855 -117.349237 42 27084ft 339kts
26-Aug-18 14:22 34.135325 -117.269620 41 27078ft 337kts
26-Aug-18 14:23 34.192715 -117.200399 41 27079ft 335kts
26-Aug-18 14:24 34.258408 -117.121002 41 27080ft 334kts
26-Aug-18 14:25 34.323655 -117.041994 41 27074ft 334kts
26-Aug-18 14:26 34.389172 -116.962442 42 27052ft 336kts
26-Aug-18 14:27 34.455070 -116.882216 42 27004ft 337kts
26-Aug-18 14:28 34.520950 -116.801837 42 27001ft 337kts
26-Aug-18 14:29 34.586817 -116.721278 42 27002ft 337kts
26-Aug-18 14:30 34.652683 -116.640534 42 27003ft 337kts
26-Aug-18 14:31 34.718417 -116.559760 42 27005ft 337kts
26-Aug-18 14:32 34.783978 -116.479005 42 27004ft 337kts
26-Aug-18 14:33 34.847402 -116.397193 44 27005ft 338kts
26-Aug-18 14:34 34.910511 -116.314706 44 27019ft 337kts
26-Aug-18 14:35 34.973998 -116.231510 45 27034ft 336kts
26-Aug-18 14:36 35.037504 -116.148083 45 27031ft 336kts
26-Aug-18 14:37 35.101388 -116.063948 45 26447ft 352kts
26-Aug-18 14:38 35.168965 -115.974736 45 24694ft 371kts
26-Aug-18 14:39 35.236916 -115.884775 45 23907ft 359kts
26-Aug-18 14:40 35.304440 -115.795153 45 22479ft 359kts
26-Aug-18 14:41 35.371245 -115.706253 45 20944ft 358kts
26-Aug-18 14:42 35.438141 -115.616986 45 19384ft 355kts
26-Aug-18 14:43 35.504047 -115.528820 45 17858ft 346kts
26-Aug-18 14:44 35.568142 -115.443650 45 16396ft 337kts
26-Aug-18 14:45 35.631139 -115.359981 45 14949ft 330kts
26-Aug-18 14:46 35.692077 -115.279128 45 13462ft 320kts
26-Aug-18 14:47 35.751832 -115.199891 45 11961ft 313kts
26-Aug-18 14:48 35.826047 -115.156931 11 10061ft 303kts
26-Aug-18 14:49 35.900228 -115.134423 11 7928ft 252kts
26-Aug-18 14:50 35.958316 -115.119095 359 6990ft 154kts
26-Aug-18 14:51 35.997632 -115.115528 359 4991ft 141kts
26-Aug-18 14:52 36.009030 -115.134287 192 3456ft 100kts
26-Aug-18 14:53 35.982569 -115.135311 184 2467ft 87kts
26-Aug-18 14:54 35.974337 -115.136884 220 2423ft 7kts
26-Aug-18 14:55 35.973243 -115.138159 266 2425ft 4kts
26-Aug-18 14:56 35.973046 -115.138253 185 2426ft 0kts

Navigation Log

Ident Type
Flight plan parsing failed, navigation log unavailable